sensor_id;sensor_type;location;lat;lon;timestamp;P1;durP1;ratioP1;P2;durP2;ratioP2
26951;SDS011;14507;52.418;13.398;2024-03-29T00:00:00;3.88;;;1.23;;
26951;SDS011;14507;52.418;13.398;2024-03-29T00:02:26;5.00;;;1.70;;
26951;SDS011;14507;52.418;13.398;2024-03-29T00:04:52;4.05;;;1.33;;
26951;SDS011;14507;52.418;13.398;2024-03-29T00:07:18;6.68;;;1.63;;
26951;SDS011;14507;52.418;13.398;2024-03-29T00:09:44;2.53;;;0.90;;
26951;SDS011;14507;52.418;13.398;2024-03-29T00:12:09;7.03;;;1.60;;
26951;SDS011;14507;52.418;13.398;2024-03-29T00:14:35;7.65;;;1.75;;
26951;SDS011;14507;52.418;13.398;2024-03-29T00:17:00;6.63;;;1.88;;
26951;SDS011;14507;52.418;13.398;2024-03-29T00:19:29;11.45;;;2.47;;
26951;SDS011;14507;52.418;13.398;2024-03-29T00:21:54;6.20;;;1.63;;
26951;SDS011;14507;52.418;13.398;2024-03-29T00:24:20;2.75;;;0.82;;
26951;SDS011;14507;52.418;13.398;2024-03-29T00:26:46;4.55;;;0.90;;
26951;SDS011;14507;52.418;13.398;2024-03-29T00:29:11;5.75;;;0.80;;
26951;SDS011;14507;52.418;13.398;2024-03-29T00:31:37;1.40;;;0.60;;
26951;SDS011;14507;52.418;13.398;2024-03-29T00:34:02;5.47;;;0.98;;
26951;SDS011;14507;52.418;13.398;2024-03-29T00:36:28;6.45;;;1.02;;
26951;SDS011;14507;52.418;13.398;2024-03-29T00:38:54;3.10;;;0.70;;
26951;SDS011;14507;52.418;13.398;2024-03-29T00:41:19;3.55;;;0.70;;
26951;SDS011;14507;52.418;13.398;2024-03-29T00:43:45;0.90;;;0.50;;
26951;SDS011;14507;52.418;13.398;2024-03-29T00:46:10;2.50;;;0.60;;
26951;SDS011;14507;52.418;13.398;2024-03-29T00:48:36;0.70;;;0.43;;
26951;SDS011;14507;52.418;13.398;2024-03-29T00:51:02;1.63;;;0.50;;
26951;SDS011;14507;52.418;13.398;2024-03-29T00:53:28;1.50;;;0.70;;
26951;SDS011;14507;52.418;13.398;2024-03-29T00:55:53;2.63;;;0.70;;
26951;SDS011;14507;52.418;13.398;2024-03-29T00:58:19;3.88;;;0.60;;
26951;SDS011;14507;52.418;13.398;2024-03-29T01:00:44;1.45;;;0.70;;
26951;SDS011;14507;52.418;13.398;2024-03-29T01:03:10;2.80;;;0.88;;
26951;SDS011;14507;52.418;13.398;2024-03-29T01:05:36;4.50;;;0.60;;
26951;SDS011;14507;52.418;13.398;2024-03-29T01:08:03;2.63;;;0.80;;
26951;SDS011;14507;52.418;13.398;2024-03-29T01:10:29;2.50;;;0.65;;
26951;SDS011;14507;52.418;13.398;2024-03-29T01:12:55;2.83;;;0.65;;
26951;SDS011;14507;52.418;13.398;2024-03-29T01:15:20;2.88;;;0.70;;
26951;SDS011;14507;52.418;13.398;2024-03-29T01:17:46;3.90;;;1.02;;
26951;SDS011;14507;52.418;13.398;2024-03-29T01:20:12;2.75;;;0.82;;
26951;SDS011;14507;52.418;13.398;2024-03-29T01:22:37;4.80;;;0.90;;
26951;SDS011;14507;52.418;13.398;2024-03-29T01:25:03;4.43;;;0.90;;
26951;SDS011;14507;52.418;13.398;2024-03-29T01:27:32;4.13;;;0.88;;
26951;SDS011;14507;52.418;13.398;2024-03-29T01:29:58;2.50;;;0.77;;
26951;SDS011;14507;52.418;13.398;2024-03-29T01:32:24;3.67;;;0.80;;
26951;SDS011;14507;52.418;13.398;2024-03-29T01:34:50;4.75;;;1.10;;
26951;SDS011;14507;52.418;13.398;2024-03-29T01:37:16;1.42;;;0.70;;
26951;SDS011;14507;52.418;13.398;2024-03-29T01:39:41;3.90;;;1.00;;
26951;SDS011;14507;52.418;13.398;2024-03-29T01:42:07;1.52;;;0.82;;
26951;SDS011;14507;52.418;13.398;2024-03-29T01:44:32;5.45;;;1.05;;
26951;SDS011;14507;52.418;13.398;2024-03-29T01:46:58;4.95;;;1.30;;
26951;SDS011;14507;52.418;13.398;2024-03-29T01:49:24;3.08;;;1.10;;
26951;SDS011;14507;52.418;13.398;2024-03-29T01:51:50;2.80;;;1.05;;
26951;SDS011;14507;52.418;13.398;2024-03-29T01:54:16;2.90;;;1.17;;
26951;SDS011;14507;52.418;13.398;2024-03-29T01:56:43;2.30;;;1.25;;
26951;SDS011;14507;52.418;13.398;2024-03-29T01:59:15;2.55;;;1.00;;
26951;SDS011;14507;52.418;13.398;2024-03-29T02:01:42;3.75;;;1.55;;
26951;SDS011;14507;52.418;13.398;2024-03-29T02:04:08;3.95;;;1.23;;
26951;SDS011;14507;52.418;13.398;2024-03-29T02:06:34;5.38;;;1.50;;
26951;SDS011;14507;52.418;13.398;2024-03-29T02:09:01;3.97;;;1.30;;
26951;SDS011;14507;52.418;13.398;2024-03-29T02:11:28;5.53;;;1.50;;
26951;SDS011;14507;52.418;13.398;2024-03-29T02:13:54;2.92;;;1.52;;
26951;SDS011;14507;52.418;13.398;2024-03-29T02:16:20;4.18;;;1.42;;
26951;SDS011;14507;52.418;13.398;2024-03-29T02:18:45;6.00;;;1.60;;
26951;SDS011;14507;52.418;13.398;2024-03-29T02:21:11;4.70;;;1.52;;
26951;SDS011;14507;52.418;13.398;2024-03-29T02:23:37;4.30;;;1.67;;
26951;SDS011;14507;52.418;13.398;2024-03-29T02:26:08;3.53;;;1.30;;
26951;SDS011;14507;52.418;13.398;2024-03-29T02:28:33;4.93;;;1.50;;
26951;SDS011;14507;52.418;13.398;2024-03-29T02:30:59;5.18;;;1.58;;
26951;SDS011;14507;52.418;13.398;2024-03-29T02:33:25;2.85;;;1.20;;
26951;SDS011;14507;52.418;13.398;2024-03-29T02:35:50;2.97;;;1.40;;
26951;SDS011;14507;52.418;13.398;2024-03-29T02:38:16;4.50;;;1.30;;
26951;SDS011;14507;52.418;13.398;2024-03-29T02:40:42;3.63;;;1.60;;
26951;SDS011;14507;52.418;13.398;2024-03-29T02:43:07;2.72;;;1.60;;
26951;SDS011;14507;52.418;13.398;2024-03-29T02:45:33;3.97;;;1.90;;
26951;SDS011;14507;52.418;13.398;2024-03-29T02:47:59;6.32;;;1.77;;
26951;SDS011;14507;52.418;13.398;2024-03-29T02:50:25;3.63;;;1.70;;
26951;SDS011;14507;52.418;13.398;2024-03-29T02:52:51;3.67;;;1.50;;
26951;SDS011;14507;52.418;13.398;2024-03-29T02:55:16;5.10;;;1.52;;
26951;SDS011;14507;52.418;13.398;2024-03-29T02:57:42;2.70;;;1.40;;
26951;SDS011;14507;52.418;13.398;2024-03-29T03:00:08;5.13;;;1.73;;
26951;SDS011;14507;52.418;13.398;2024-03-29T03:02:37;4.60;;;1.75;;
26951;SDS011;14507;52.418;13.398;2024-03-29T03:05:04;3.92;;;1.70;;
26951;SDS011;14507;52.418;13.398;2024-03-29T03:07:30;4.80;;;1.70;;
26951;SDS011;14507;52.418;13.398;2024-03-29T03:10:14;4.93;;;1.92;;
26951;SDS011;14507;52.418;13.398;2024-03-29T03:12:58;5.32;;;1.77;;
26951;SDS011;14507;52.418;13.398;2024-03-29T03:15:24;5.43;;;2.53;;
26951;SDS011;14507;52.418;13.398;2024-03-29T03:17:50;5.13;;;1.75;;
26951;SDS011;14507;52.418;13.398;2024-03-29T03:20:15;6.93;;;2.10;;
26951;SDS011;14507;52.418;13.398;2024-03-29T03:22:41;4.07;;;1.70;;
26951;SDS011;14507;52.418;13.398;2024-03-29T03:25:07;6.57;;;1.90;;
26951;SDS011;14507;52.418;13.398;2024-03-29T03:27:33;4.63;;;2.03;;
26951;SDS011;14507;52.418;13.398;2024-03-29T03:29:59;3.90;;;1.75;;
26951;SDS011;14507;52.418;13.398;2024-03-29T03:32:28;6.47;;;2.17;;
26951;SDS011;14507;52.418;13.398;2024-03-29T03:34:53;6.47;;;2.00;;
26951;SDS011;14507;52.418;13.398;2024-03-29T03:37:19;3.58;;;1.75;;
26951;SDS011;14507;52.418;13.398;2024-03-29T03:39:44;4.60;;;1.52;;
26951;SDS011;14507;52.418;13.398;2024-03-29T03:42:10;4.80;;;1.73;;
26951;SDS011;14507;52.418;13.398;2024-03-29T03:44:35;4.43;;;1.65;;
26951;SDS011;14507;52.418;13.398;2024-03-29T03:47:01;4.45;;;2.10;;
26951;SDS011;14507;52.418;13.398;2024-03-29T03:49:27;6.10;;;1.80;;
26951;SDS011;14507;52.418;13.398;2024-03-29T03:51:52;4.00;;;1.65;;
26951;SDS011;14507;52.418;13.398;2024-03-29T03:54:18;4.68;;;1.50;;
26951;SDS011;14507;52.418;13.398;2024-03-29T03:56:44;2.70;;;1.48;;
26951;SDS011;14507;52.418;13.398;2024-03-29T03:59:09;6.03;;;1.90;;
26951;SDS011;14507;52.418;13.398;2024-03-29T04:01:35;3.05;;;1.40;;
26951;SDS011;14507;52.418;13.398;2024-03-29T04:04:00;4.72;;;1.95;;
26951;SDS011;14507;52.418;13.398;2024-03-29T04:06:26;4.47;;;1.80;;
26951;SDS011;14507;52.418;13.398;2024-03-29T04:08:52;4.85;;;1.83;;
26951;SDS011;14507;52.418;13.398;2024-03-29T04:11:17;4.35;;;1.70;;
26951;SDS011;14507;52.418;13.398;2024-03-29T04:13:45;3.85;;;1.60;;
26951;SDS011;14507;52.418;13.398;2024-03-29T04:16:10;5.50;;;1.67;;
26951;SDS011;14507;52.418;13.398;2024-03-29T04:18:36;3.83;;;1.50;;
26951;SDS011;14507;52.418;13.398;2024-03-29T04:21:02;3.70;;;1.80;;
26951;SDS011;14507;52.418;13.398;2024-03-29T04:23:29;3.60;;;1.42;;
26951;SDS011;14507;52.418;13.398;2024-03-29T04:25:55;7.63;;;2.00;;
26951;SDS011;14507;52.418;13.398;2024-03-29T04:28:21;6.57;;;1.80;;
26951;SDS011;14507;52.418;13.398;2024-03-29T04:30:54;5.18;;;1.52;;
26951;SDS011;14507;52.418;13.398;2024-03-29T04:33:21;5.57;;;1.60;;
26951;SDS011;14507;52.418;13.398;2024-03-29T04:36:05;9.57;;;1.75;;
26951;SDS011;14507;52.418;13.398;2024-03-29T04:38:31;3.92;;;1.20;;
26951;SDS011;14507;52.418;13.398;2024-03-29T04:40:57;2.38;;;1.00;;
26951;SDS011;14507;52.418;13.398;2024-03-29T04:43:27;5.85;;;1.38;;
26951;SDS011;14507;52.418;13.398;2024-03-29T04:46:03;3.90;;;1.50;;
26951;SDS011;14507;52.418;13.398;2024-03-29T04:48:35;4.68;;;1.15;;
26951;SDS011;14507;52.418;13.398;2024-03-29T04:51:01;5.43;;;1.48;;
26951;SDS011;14507;52.418;13.398;2024-03-29T04:53:27;4.93;;;1.52;;
26951;SDS011;14507;52.418;13.398;2024-03-29T04:55:53;4.68;;;1.40;;
26951;SDS011;14507;52.418;13.398;2024-03-29T04:58:19;3.83;;;1.15;;
26951;SDS011;14507;52.418;13.398;2024-03-29T05:00:45;3.30;;;1.52;;
26951;SDS011;14507;52.418;13.398;2024-03-29T05:03:11;3.47;;;1.50;;
26951;SDS011;14507;52.418;13.398;2024-03-29T05:05:37;7.15;;;1.55;;
26951;SDS011;14507;52.418;13.398;2024-03-29T05:08:02;4.40;;;1.42;;
26951;SDS011;14507;52.418;13.398;2024-03-29T05:10:28;4.20;;;1.40;;
26951;SDS011;14507;52.418;13.398;2024-03-29T05:12:53;3.88;;;1.35;;
26951;SDS011;14507;52.418;13.398;2024-03-29T05:15:19;6.00;;;1.42;;
26951;SDS011;14507;52.418;13.398;2024-03-29T05:17:45;3.35;;;1.17;;
26951;SDS011;14507;52.418;13.398;2024-03-29T05:20:10;4.47;;;1.35;;
26951;SDS011;14507;52.418;13.398;2024-03-29T05:22:36;3.45;;;1.15;;
26951;SDS011;14507;52.418;13.398;2024-03-29T05:25:02;3.05;;;1.08;;
26951;SDS011;14507;52.418;13.398;2024-03-29T05:27:29;5.95;;;1.40;;
26951;SDS011;14507;52.418;13.398;2024-03-29T05:29:54;3.55;;;1.05;;
26951;SDS011;14507;52.418;13.398;2024-03-29T05:32:20;5.82;;;1.38;;
26951;SDS011;14507;52.418;13.398;2024-03-29T05:34:46;7.78;;;1.63;;
26951;SDS011;14507;52.418;13.398;2024-03-29T05:37:11;4.13;;;1.20;;
26951;SDS011;14507;52.418;13.398;2024-03-29T05:39:37;4.53;;;1.20;;
26951;SDS011;14507;52.418;13.398;2024-03-29T05:42:03;2.85;;;1.35;;
26951;SDS011;14507;52.418;13.398;2024-03-29T05:44:29;3.47;;;0.93;;
26951;SDS011;14507;52.418;13.398;2024-03-29T05:46:54;3.13;;;0.95;;
26951;SDS011;14507;52.418;13.398;2024-03-29T05:49:20;4.63;;;1.85;;
26951;SDS011;14507;52.418;13.398;2024-03-29T05:51:45;3.17;;;1.20;;
26951;SDS011;14507;52.418;13.398;2024-03-29T05:54:11;6.65;;;1.48;;
26951;SDS011;14507;52.418;13.398;2024-03-29T05:56:36;4.22;;;1.10;;
26951;SDS011;14507;52.418;13.398;2024-03-29T05:59:02;4.32;;;1.30;;
26951;SDS011;14507;52.418;13.398;2024-03-29T06:01:28;3.28;;;0.90;;
26951;SDS011;14507;52.418;13.398;2024-03-29T06:03:55;3.90;;;1.20;;
26951;SDS011;14507;52.418;13.398;2024-03-29T06:06:21;6.22;;;1.25;;
26951;SDS011;14507;52.418;13.398;2024-03-29T06:08:49;3.30;;;1.13;;
26951;SDS011;14507;52.418;13.398;2024-03-29T06:11:15;5.75;;;1.45;;
26951;SDS011;14507;52.418;13.398;2024-03-29T06:13:40;3.53;;;1.20;;
26951;SDS011;14507;52.418;13.398;2024-03-29T06:16:21;4.47;;;1.17;;
26951;SDS011;14507;52.418;13.398;2024-03-29T06:19:08;2.72;;;1.00;;
26951;SDS011;14507;52.418;13.398;2024-03-29T06:21:35;3.80;;;1.15;;
26951;SDS011;14507;52.418;13.398;2024-03-29T06:24:07;6.40;;;1.35;;
26951;SDS011;14507;52.418;13.398;2024-03-29T06:26:37;3.88;;;1.10;;
26951;SDS011;14507;52.418;13.398;2024-03-29T06:29:03;1.83;;;0.93;;
26951;SDS011;14507;52.418;13.398;2024-03-29T06:31:29;5.63;;;1.25;;
26951;SDS011;14507;52.418;13.398;2024-03-29T06:33:54;2.45;;;0.88;;
26951;SDS011;14507;52.418;13.398;2024-03-29T06:36:20;5.72;;;1.42;;
26951;SDS011;14507;52.418;13.398;2024-03-29T06:38:46;4.43;;;0.93;;
26951;SDS011;14507;52.418;13.398;2024-03-29T06:41:12;5.53;;;1.02;;
26951;SDS011;14507;52.418;13.398;2024-03-29T06:43:40;4.57;;;1.52;;
26951;SDS011;14507;52.418;13.398;2024-03-29T06:46:07;4.38;;;1.05;;
26951;SDS011;14507;52.418;13.398;2024-03-29T06:48:32;2.83;;;1.00;;
26951;SDS011;14507;52.418;13.398;2024-03-29T06:50:58;6.32;;;1.10;;
26951;SDS011;14507;52.418;13.398;2024-03-29T06:53:24;3.22;;;1.20;;
26951;SDS011;14507;52.418;13.398;2024-03-29T06:55:50;4.88;;;1.25;;
26951;SDS011;14507;52.418;13.398;2024-03-29T06:58:16;6.63;;;1.50;;
26951;SDS011;14507;52.418;13.398;2024-03-29T07:00:43;3.03;;;1.30;;
26951;SDS011;14507;52.418;13.398;2024-03-29T07:03:11;2.38;;;1.10;;
26951;SDS011;14507;52.418;13.398;2024-03-29T07:05:37;5.47;;;1.27;;
26951;SDS011;14507;52.418;13.398;2024-03-29T07:08:02;3.70;;;0.98;;
26951;SDS011;14507;52.418;13.398;2024-03-29T07:10:28;5.15;;;1.20;;
26951;SDS011;14507;52.418;13.398;2024-03-29T07:12:56;4.43;;;1.13;;
26951;SDS011;14507;52.418;13.398;2024-03-29T07:15:22;3.55;;;1.20;;
26951;SDS011;14507;52.418;13.398;2024-03-29T07:17:48;3.70;;;1.20;;
26951;SDS011;14507;52.418;13.398;2024-03-29T07:20:16;3.97;;;1.13;;
26951;SDS011;14507;52.418;13.398;2024-03-29T07:22:42;7.60;;;1.10;;
26951;SDS011;14507;52.418;13.398;2024-03-29T07:25:08;5.47;;;1.48;;
26951;SDS011;14507;52.418;13.398;2024-03-29T07:27:34;2.20;;;0.90;;
26951;SDS011;14507;52.418;13.398;2024-03-29T07:30:01;3.70;;;0.90;;
26951;SDS011;14507;52.418;13.398;2024-03-29T07:32:29;5.05;;;1.35;;
26951;SDS011;14507;52.418;13.398;2024-03-29T07:34:55;4.78;;;1.20;;
26951;SDS011;14507;52.418;13.398;2024-03-29T07:37:23;7.20;;;1.45;;
26951;SDS011;14507;52.418;13.398;2024-03-29T07:39:49;4.43;;;1.20;;
26951;SDS011;14507;52.418;13.398;2024-03-29T07:42:15;6.13;;;0.90;;
26951;SDS011;14507;52.418;13.398;2024-03-29T07:44:41;5.15;;;1.08;;
26951;SDS011;14507;52.418;13.398;2024-03-29T07:47:07;7.18;;;1.30;;
26951;SDS011;14507;52.418;13.398;2024-03-29T07:49:32;5.15;;;1.65;;
26951;SDS011;14507;52.418;13.398;2024-03-29T07:51:58;3.15;;;1.15;;
26951;SDS011;14507;52.418;13.398;2024-03-29T07:54:27;7.20;;;1.30;;
26951;SDS011;14507;52.418;13.398;2024-03-29T07:56:53;3.50;;;1.10;;
26951;SDS011;14507;52.418;13.398;2024-03-29T07:59:18;4.68;;;0.73;;
26951;SDS011;14507;52.418;13.398;2024-03-29T08:01:45;5.30;;;1.05;;
26951;SDS011;14507;52.418;13.398;2024-03-29T08:04:11;5.57;;;1.25;;
26951;SDS011;14507;52.418;13.398;2024-03-29T08:06:36;3.17;;;1.02;;
26951;SDS011;14507;52.418;13.398;2024-03-29T08:09:02;4.13;;;0.90;;
26951;SDS011;14507;52.418;13.398;2024-03-29T08:11:28;5.47;;;0.93;;
26951;SDS011;14507;52.418;13.398;2024-03-29T08:13:54;2.83;;;0.82;;
26951;SDS011;14507;52.418;13.398;2024-03-29T08:16:20;10.70;;;1.40;;
26951;SDS011;14507;52.418;13.398;2024-03-29T08:18:46;2.90;;;1.10;;
26951;SDS011;14507;52.418;13.398;2024-03-29T08:21:13;4.13;;;1.10;;
26951;SDS011;14507;52.418;13.398;2024-03-29T08:23:42;2.60;;;1.00;;
26951;SDS011;14507;52.418;13.398;2024-03-29T08:26:12;3.53;;;0.93;;
26951;SDS011;14507;52.418;13.398;2024-03-29T08:28:38;4.53;;;1.02;;
26951;SDS011;14507;52.418;13.398;2024-03-29T08:31:05;6.22;;;1.30;;
26951;SDS011;14507;52.418;13.398;2024-03-29T08:33:34;5.03;;;1.30;;
26951;SDS011;14507;52.418;13.398;2024-03-29T08:36:02;4.35;;;0.98;;
26951;SDS011;14507;52.418;13.398;2024-03-29T08:38:31;3.78;;;1.20;;
26951;SDS011;14507;52.418;13.398;2024-03-29T08:40:57;6.95;;;1.38;;
26951;SDS011;14507;52.418;13.398;2024-03-29T08:43:22;3.13;;;0.90;;
26951;SDS011;14507;52.418;13.398;2024-03-29T08:45:48;5.10;;;0.98;;
26951;SDS011;14507;52.418;13.398;2024-03-29T08:48:14;5.38;;;1.17;;
26951;SDS011;14507;52.418;13.398;2024-03-29T08:50:40;2.97;;;1.08;;
26951;SDS011;14507;52.418;13.398;2024-03-29T08:53:05;5.22;;;1.45;;
26951;SDS011;14507;52.418;13.398;2024-03-29T08:55:32;2.55;;;0.90;;
26951;SDS011;14507;52.418;13.398;2024-03-29T08:57:59;4.20;;;1.13;;
26951;SDS011;14507;52.418;13.398;2024-03-29T09:00:25;4.13;;;1.00;;
26951;SDS011;14507;52.418;13.398;2024-03-29T09:02:52;3.92;;;1.42;;
26951;SDS011;14507;52.418;13.398;2024-03-29T09:05:17;4.68;;;1.00;;
26951;SDS011;14507;52.418;13.398;2024-03-29T09:07:43;4.43;;;1.10;;
26951;SDS011;14507;52.418;13.398;2024-03-29T09:10:09;1.92;;;0.90;;
26951;SDS011;14507;52.418;13.398;2024-03-29T09:12:34;4.88;;;1.35;;
26951;SDS011;14507;52.418;13.398;2024-03-29T09:15:00;3.75;;;0.80;;
26951;SDS011;14507;52.418;13.398;2024-03-29T09:17:26;2.90;;;0.90;;
26951;SDS011;14507;52.418;13.398;2024-03-29T09:19:52;2.90;;;1.00;;
26951;SDS011;14507;52.418;13.398;2024-03-29T09:22:18;3.03;;;1.15;;
26951;SDS011;14507;52.418;13.398;2024-03-29T09:24:44;2.38;;;0.85;;
26951;SDS011;14507;52.418;13.398;2024-03-29T09:27:10;4.47;;;0.90;;
26951;SDS011;14507;52.418;13.398;2024-03-29T09:29:36;3.20;;;0.95;;
26951;SDS011;14507;52.418;13.398;2024-03-29T09:32:02;4.15;;;0.90;;
26951;SDS011;14507;52.418;13.398;2024-03-29T09:34:28;5.72;;;1.10;;
26951;SDS011;14507;52.418;13.398;2024-03-29T09:36:54;4.60;;;1.02;;
26951;SDS011;14507;52.418;13.398;2024-03-29T09:39:20;5.40;;;1.40;;
26951;SDS011;14507;52.418;13.398;2024-03-29T09:41:46;3.60;;;0.95;;
26951;SDS011;14507;52.418;13.398;2024-03-29T09:44:11;3.20;;;1.00;;
26951;SDS011;14507;52.418;13.398;2024-03-29T09:46:37;2.95;;;0.93;;
26951;SDS011;14507;52.418;13.398;2024-03-29T09:49:05;2.75;;;1.08;;
26951;SDS011;14507;52.418;13.398;2024-03-29T09:51:31;2.95;;;1.02;;
26951;SDS011;14507;52.418;13.398;2024-03-29T09:53:58;4.25;;;0.98;;
26951;SDS011;14507;52.418;13.398;2024-03-29T09:56:25;2.78;;;1.13;;
26951;SDS011;14507;52.418;13.398;2024-03-29T09:58:52;3.13;;;0.90;;
26951;SDS011;14507;52.418;13.398;2024-03-29T10:01:18;4.30;;;1.10;;
26951;SDS011;14507;52.418;13.398;2024-03-29T10:03:48;2.88;;;1.00;;
26951;SDS011;14507;52.418;13.398;2024-03-29T10:06:17;4.32;;;1.00;;
26951;SDS011;14507;52.418;13.398;2024-03-29T10:08:44;2.33;;;1.10;;
26951;SDS011;14507;52.418;13.398;2024-03-29T10:11:10;2.70;;;0.65;;
26951;SDS011;14507;52.418;13.398;2024-03-29T10:13:36;3.85;;;1.05;;
26951;SDS011;14507;52.418;13.398;2024-03-29T10:16:03;4.43;;;0.93;;
26951;SDS011;14507;52.418;13.398;2024-03-29T10:18:29;4.40;;;1.25;;
26951;SDS011;14507;52.418;13.398;2024-03-29T10:21:04;2.90;;;1.10;;
26951;SDS011;14507;52.418;13.398;2024-03-29T10:23:31;3.75;;;1.00;;
26951;SDS011;14507;52.418;13.398;2024-03-29T10:26:00;6.38;;;1.20;;
26951;SDS011;14507;52.418;13.398;2024-03-29T10:28:35;2.95;;;0.98;;
26951;SDS011;14507;52.418;13.398;2024-03-29T10:31:02;4.30;;;1.30;;
26951;SDS011;14507;52.418;13.398;2024-03-29T10:33:29;4.43;;;1.00;;
26951;SDS011;14507;52.418;13.398;2024-03-29T10:35:56;4.22;;;1.13;;
26951;SDS011;14507;52.418;13.398;2024-03-29T10:38:24;4.45;;;1.10;;
26951;SDS011;14507;52.418;13.398;2024-03-29T10:40:50;4.03;;;1.27;;
26951;SDS011;14507;52.418;13.398;2024-03-29T10:43:17;5.18;;;1.13;;
26951;SDS011;14507;52.418;13.398;2024-03-29T10:45:45;6.97;;;1.20;;
26951;SDS011;14507;52.418;13.398;2024-03-29T10:48:20;6.63;;;1.30;;
26951;SDS011;14507;52.418;13.398;2024-03-29T10:50:47;6.73;;;1.50;;
26951;SDS011;14507;52.418;13.398;2024-03-29T10:53:16;5.07;;;1.63;;
26951;SDS011;14507;52.418;13.398;2024-03-29T10:55:42;2.25;;;1.17;;
26951;SDS011;14507;52.418;13.398;2024-03-29T10:58:09;2.00;;;0.98;;
26951;SDS011;14507;52.418;13.398;2024-03-29T11:00:41;5.35;;;1.70;;
26951;SDS011;14507;52.418;13.398;2024-03-29T11:05:57;5.68;;;1.00;;
26951;SDS011;14507;52.418;13.398;2024-03-29T11:08:27;4.05;;;0.88;;
26951;SDS011;14507;52.418;13.398;2024-03-29T11:11:03;3.45;;;1.08;;
26951;SDS011;14507;52.418;13.398;2024-03-29T11:13:37;1.95;;;0.90;;
26951;SDS011;14507;52.418;13.398;2024-03-29T11:16:14;2.92;;;1.27;;
26951;SDS011;14507;52.418;13.398;2024-03-29T11:18:44;3.92;;;0.88;;
26951;SDS011;14507;52.418;13.398;2024-03-29T11:21:12;3.15;;;1.08;;
26951;SDS011;14507;52.418;13.398;2024-03-29T11:23:43;2.13;;;0.70;;
26951;SDS011;14507;52.418;13.398;2024-03-29T11:26:14;2.33;;;0.88;;
26951;SDS011;14507;52.418;13.398;2024-03-29T11:28:40;3.28;;;1.08;;
26951;SDS011;14507;52.418;13.398;2024-03-29T11:31:08;3.60;;;1.00;;
26951;SDS011;14507;52.418;13.398;2024-03-29T11:33:35;2.20;;;1.00;;
26951;SDS011;14507;52.418;13.398;2024-03-29T11:36:11;2.78;;;0.93;;
26951;SDS011;14507;52.418;13.398;2024-03-29T11:38:39;1.85;;;0.73;;
26951;SDS011;14507;52.418;13.398;2024-03-29T11:41:12;3.60;;;1.00;;
26951;SDS011;14507;52.418;13.398;2024-03-29T11:43:39;1.63;;;0.85;;
26951;SDS011;14507;52.418;13.398;2024-03-29T11:46:07;3.35;;;1.02;;
26951;SDS011;14507;52.418;13.398;2024-03-29T11:48:41;3.78;;;1.10;;
26951;SDS011;14507;52.418;13.398;2024-03-29T11:51:07;2.55;;;1.15;;
26951;SDS011;14507;52.418;13.398;2024-03-29T11:53:36;4.78;;;1.00;;
26951;SDS011;14507;52.418;13.398;2024-03-29T11:56:02;2.05;;;0.95;;
26951;SDS011;14507;52.418;13.398;2024-03-29T11:58:30;3.58;;;0.90;;
26951;SDS011;14507;52.418;13.398;2024-03-29T12:00:57;2.40;;;1.10;;
26951;SDS011;14507;52.418;13.398;2024-03-29T12:03:24;3.70;;;1.50;;
26951;SDS011;14507;52.418;13.398;2024-03-29T12:05:52;3.80;;;1.20;;
26951;SDS011;14507;52.418;13.398;2024-03-29T12:08:20;2.47;;;0.90;;
26951;SDS011;14507;52.418;13.398;2024-03-29T12:10:47;2.22;;;1.23;;
26951;SDS011;14507;52.418;13.398;2024-03-29T12:13:15;4.13;;;1.20;;
26951;SDS011;14507;52.418;13.398;2024-03-29T12:15:41;2.78;;;0.85;;
26951;SDS011;14507;52.418;13.398;2024-03-29T12:18:07;2.08;;;0.88;;
26951;SDS011;14507;52.418;13.398;2024-03-29T12:20:33;2.40;;;0.57;;
26951;SDS011;14507;52.418;13.398;2024-03-29T12:23:04;6.20;;;1.30;;
26951;SDS011;14507;52.418;13.398;2024-03-29T12:25:31;4.38;;;1.30;;
26951;SDS011;14507;52.418;13.398;2024-03-29T12:27:59;1.90;;;0.90;;
26951;SDS011;14507;52.418;13.398;2024-03-29T12:30:25;3.00;;;1.00;;
26951;SDS011;14507;52.418;13.398;2024-03-29T12:33:01;4.68;;;1.10;;
26951;SDS011;14507;52.418;13.398;2024-03-29T12:35:37;4.20;;;1.00;;
26951;SDS011;14507;52.418;13.398;2024-03-29T12:38:04;2.60;;;1.10;;
26951;SDS011;14507;52.418;13.398;2024-03-29T12:40:32;3.85;;;1.13;;
26951;SDS011;14507;52.418;13.398;2024-03-29T12:43:02;2.42;;;0.82;;
26951;SDS011;14507;52.418;13.398;2024-03-29T12:45:33;1.52;;;0.90;;
26951;SDS011;14507;52.418;13.398;2024-03-29T12:48:00;4.47;;;0.93;;
26951;SDS011;14507;52.418;13.398;2024-03-29T12:50:26;2.38;;;0.90;;
26951;SDS011;14507;52.418;13.398;2024-03-29T12:52:53;2.42;;;1.00;;
26951;SDS011;14507;52.418;13.398;2024-03-29T12:55:22;1.80;;;1.02;;
26951;SDS011;14507;52.418;13.398;2024-03-29T12:57:49;4.18;;;1.10;;
26951;SDS011;14507;52.418;13.398;2024-03-29T13:00:18;2.78;;;1.10;;
26951;SDS011;14507;52.418;13.398;2024-03-29T13:02:44;2.53;;;0.93;;
26951;SDS011;14507;52.418;13.398;2024-03-29T13:05:10;3.45;;;1.08;;
26951;SDS011;14507;52.418;13.398;2024-03-29T13:07:35;2.05;;;0.75;;
26951;SDS011;14507;52.418;13.398;2024-03-29T13:10:01;2.90;;;0.77;;
26951;SDS011;14507;52.418;13.398;2024-03-29T13:12:30;2.85;;;0.80;;
26951;SDS011;14507;52.418;13.398;2024-03-29T13:14:56;2.47;;;1.10;;
26951;SDS011;14507;52.418;13.398;2024-03-29T13:17:29;4.65;;;1.10;;
26951;SDS011;14507;52.418;13.398;2024-03-29T13:19:54;2.20;;;0.77;;
26951;SDS011;14507;52.418;13.398;2024-03-29T13:22:20;2.60;;;0.80;;
26951;SDS011;14507;52.418;13.398;2024-03-29T13:24:46;2.17;;;0.82;;
26951;SDS011;14507;52.418;13.398;2024-03-29T13:27:11;1.95;;;0.77;;
26951;SDS011;14507;52.418;13.398;2024-03-29T13:29:38;2.22;;;0.75;;
26951;SDS011;14507;52.418;13.398;2024-03-29T13:32:04;2.50;;;0.90;;
26951;SDS011;14507;52.418;13.398;2024-03-29T13:34:30;2.90;;;0.85;;
26951;SDS011;14507;52.418;13.398;2024-03-29T13:36:55;1.77;;;0.70;;
26951;SDS011;14507;52.418;13.398;2024-03-29T13:39:21;3.42;;;0.85;;
26951;SDS011;14507;52.418;13.398;2024-03-29T13:41:48;5.90;;;1.17;;
26951;SDS011;14507;52.418;13.398;2024-03-29T13:44:14;4.65;;;0.90;;
26951;SDS011;14507;52.418;13.398;2024-03-29T13:46:42;3.65;;;1.10;;
26951;SDS011;14507;52.418;13.398;2024-03-29T13:49:08;4.00;;;0.90;;
26951;SDS011;14507;52.418;13.398;2024-03-29T13:51:34;2.88;;;0.90;;
26951;SDS011;14507;52.418;13.398;2024-03-29T13:54:00;2.28;;;0.90;;
26951;SDS011;14507;52.418;13.398;2024-03-29T13:56:25;4.40;;;0.88;;
26951;SDS011;14507;52.418;13.398;2024-03-29T13:58:51;2.63;;;1.20;;
26951;SDS011;14507;52.418;13.398;2024-03-29T14:01:17;4.53;;;0.95;;
26951;SDS011;14507;52.418;13.398;2024-03-29T14:03:42;1.65;;;0.63;;
26951;SDS011;14507;52.418;13.398;2024-03-29T14:06:09;2.25;;;0.77;;
26951;SDS011;14507;52.418;13.398;2024-03-29T14:08:35;2.88;;;0.77;;
26951;SDS011;14507;52.418;13.398;2024-03-29T14:11:01;2.72;;;0.90;;
26951;SDS011;14507;52.418;13.398;2024-03-29T14:13:27;3.55;;;0.98;;
26951;SDS011;14507;52.418;13.398;2024-03-29T14:15:53;2.83;;;0.85;;
26951;SDS011;14507;52.418;13.398;2024-03-29T14:18:20;2.15;;;0.63;;
26951;SDS011;14507;52.418;13.398;2024-03-29T14:20:45;2.80;;;1.02;;
26951;SDS011;14507;52.418;13.398;2024-03-29T14:23:11;1.83;;;0.77;;
26951;SDS011;14507;52.418;13.398;2024-03-29T14:25:40;2.08;;;0.65;;
26951;SDS011;14507;52.418;13.398;2024-03-29T14:28:06;1.98;;;0.70;;
26951;SDS011;14507;52.418;13.398;2024-03-29T14:30:32;1.40;;;0.70;;
26951;SDS011;14507;52.418;13.398;2024-03-29T14:32:57;3.42;;;0.77;;